KEGI/EGI METAR and TAF weather

Enter ICAO airport designator
Station Type Date Time Source
KEGI METAR 2020/01/27 13:56 UTC NOAA

KEGI 271356Z AUTO 01006KT 10SM SCT004 SCT033 09/09 A2999 RMK AO2 SLP157 T00860086 $


Station Type Date Time Source
KEGI Decoded METAR 2020/01/27 13:56 UTC NOAA

Duke Field / Eglin Auxiliary, FL, United States (KEGI) 30-39N 086-31W
Jan 27, 2020 - 08:56 AM EST / 2020.01.27 1356 UTC
Wind: from the N (010 degrees) at 7 MPH (6 KT):0
Visibility: 10 mile(s):0
Sky conditions: partly cloudy
Temperature: 47.5 F (8.6 C)
Dew Point: 47.5 F (8.6 C)
Relative Humidity: 100%
Pressure (altimeter): 29.99 in. Hg (1015 hPa)
ob: KEGI 271356Z AUTO 01006KT 10SM SCT004 SCT033 09/09 A2999 RMK AO2 SLP157 T00860086
cycle: 14

Station Type Date Time Source
KEGI TAF 2020/01/27 13:11 UTC NOAA

TAF
AMD KEGI 271300Z 2713/2816 01009KT 9999 SCT015 OVC020 QNH2993INS
TEMPO 2713/2715 BKN015 OVC020
BECMG 2714/2715 07009KT 4800 -SHRA SCT005 OVC012 QNH2995INS
BECMG 2718/2719 06010KT 9999 NSW SCT007 BKN020 QNH2997INS
BECMG 2720/2721 04009KT 9999 SCT015 SCT040 QNH2998INS
BECMG 2800/2801 02009KT 9999 FEW015 SCT025 QNH3000INS
BECMG 2806/2807 07009KT 4800 BR SCT250 QNH3002INS TX17/2720Z TN07/2812Z

Example: see airport list